Terminal Aerodrome Forecast
Issued by NWS

Home | Current Version | Previous Version | Text Only | Print | Product List | Glossary On
Versions: 1 2 3 4 5 6 7 8 9 10 11 12
501
FTUS43 KOAX 212320
TAFBFF
TAF
KBFF 212320Z 2200/2224 32015G25KT 2SM -SN BLSN OVC020
     FM220300 31015G22KT 6SM BLSN SCT200
     FM220900 31012KT P6SM SCT200=

USA.gov is the U.S. government's official web portal to all federal, state and local government web resources and services.